createdAt,value
2023-03-27T00:00:30.502Z,1.70
2023-03-27T00:03:01.685Z,1.10
2023-03-27T00:05:15.105Z,0.60
2023-03-27T00:07:27.928Z,1.00
2023-03-27T00:09:41.803Z,1.20
2023-03-27T00:11:57.019Z,1.20
2023-03-27T00:14:10.348Z,0.70
2023-03-27T00:16:23.695Z,1.50
2023-03-27T00:18:37.501Z,3.60
2023-03-27T00:20:50.017Z,1.60
2023-03-27T00:23:03.628Z,1.40
2023-03-27T00:25:18.154Z,3.20
2023-03-27T00:27:30.966Z,2.60
2023-03-27T00:29:44.017Z,1.00
2023-03-27T00:31:56.745Z,2.60
2023-03-27T00:34:09.369Z,2.00
2023-03-27T00:36:22.195Z,1.00
2023-03-27T00:38:35.263Z,1.70
2023-03-27T00:40:48.981Z,0.70
2023-03-27T00:43:02.121Z,0.50
2023-03-27T00:45:22.860Z,1.80
2023-03-27T00:47:40.429Z,1.60
2023-03-27T00:49:54.971Z,0.80
2023-03-27T00:52:09.681Z,1.10
2023-03-27T00:54:27.478Z,2.20
2023-03-27T00:56:42.006Z,0.60
2023-03-27T00:58:57.271Z,2.00
2023-03-27T01:01:10.982Z,1.00
2023-03-27T01:03:27.810Z,5.20
2023-03-27T01:05:41.559Z,2.60
2023-03-27T01:08:00.333Z,1.30
2023-03-27T01:10:17.475Z,1.60
2023-03-27T01:12:44.177Z,1.80
2023-03-27T01:15:08.654Z,1.10
2023-03-27T01:17:37.506Z,1.40
2023-03-27T01:20:16.909Z,1.00
2023-03-27T01:23:01.910Z,2.10
2023-03-27T01:25:54.574Z,2.70
2023-03-27T01:30:39.410Z,1.70
2023-03-27T01:33:20.682Z,4.00
2023-03-27T01:35:57.533Z,2.40
2023-03-27T01:38:47.324Z,2.80
2023-03-27T01:41:08.131Z,1.20
2023-03-27T01:43:28.576Z,3.00
2023-03-27T01:45:48.643Z,1.40
2023-03-27T01:48:08.145Z,0.70
2023-03-27T01:50:27.188Z,2.40
2023-03-27T01:52:45.509Z,3.00
2023-03-27T01:55:06.012Z,1.20
2023-03-27T01:57:26.557Z,1.70
2023-03-27T01:59:42.787Z,1.40
2023-03-27T02:02:02.202Z,2.70
2023-03-27T02:04:20.736Z,2.70
2023-03-27T02:06:39.271Z,1.50
2023-03-27T02:08:58.785Z,1.20
2023-03-27T02:11:12.609Z,0.60
2023-03-27T02:13:31.740Z,1.70
2023-03-27T02:15:46.967Z,1.60
2023-03-27T02:18:06.231Z,1.40
2023-03-27T02:20:21.563Z,0.50
2023-03-27T02:22:38.377Z,2.40
2023-03-27T02:24:52.822Z,1.40
2023-03-27T02:27:13.857Z,0.70
2023-03-27T02:29:42.331Z,0.80
2023-03-27T02:32:07.709Z,2.70
2023-03-27T02:34:41.631Z,2.00
2023-03-27T02:37:03.101Z,2.10
2023-03-27T02:39:37.184Z,2.00
2023-03-27T02:41:56.626Z,0.50
2023-03-27T02:44:31.116Z,0.50
2023-03-27T02:46:55.102Z,2.40
2023-03-27T02:49:12.255Z,3.00
2023-03-27T02:51:30.365Z,2.20
2023-03-27T02:53:47.189Z,0.90
2023-03-27T02:56:02.679Z,1.00
2023-03-27T02:58:21.974Z,2.20
2023-03-27T03:00:52.999Z,0.70
2023-03-27T03:03:19.584Z,1.30
2023-03-27T03:05:40.744Z,1.60
2023-03-27T03:07:55.345Z,0.90
2023-03-27T03:10:12.571Z,0.60
2023-03-27T03:12:25.915Z,1.40
2023-03-27T03:14:45.130Z,1.20
2023-03-27T03:16:58.126Z,1.50
2023-03-27T03:19:10.841Z,1.40
2023-03-27T03:21:23.585Z,1.00
2023-03-27T03:23:36.450Z,1.00
2023-03-27T03:25:51.412Z,2.80
2023-03-27T03:28:09.136Z,3.00
2023-03-27T03:30:22.409Z,0.60
2023-03-27T03:32:42.263Z,1.00
2023-03-27T03:34:55.141Z,1.60
2023-03-27T03:37:11.627Z,1.40
2023-03-27T03:39:26.161Z,0.80
2023-03-27T03:41:38.908Z,0.70
2023-03-27T03:43:52.768Z,1.20
2023-03-27T03:46:06.657Z,1.50
2023-03-27T03:48:21.288Z,0.90
2023-03-27T03:50:34.707Z,2.10
2023-03-27T03:52:48.243Z,1.70
2023-03-27T03:55:01.521Z,3.30
2023-03-27T03:57:15.384Z,1.20
2023-03-27T03:59:31.293Z,1.90
2023-03-27T04:02:19.276Z,3.70
2023-03-27T04:04:33.346Z,1.60
2023-03-27T04:06:54.089Z,3.10
2023-03-27T04:09:06.891Z,3.20
2023-03-27T04:11:41.388Z,6.90
2023-03-27T04:14:09.571Z,3.30
2023-03-27T04:16:26.878Z,2.00
2023-03-27T04:18:42.197Z,2.90
2023-03-27T04:21:01.427Z,3.00
2023-03-27T04:23:14.939Z,1.70
2023-03-27T04:25:29.412Z,2.20
2023-03-27T04:27:42.295Z,4.20
2023-03-27T04:30:05.167Z,1.50
2023-03-27T04:32:47.699Z,1.80
2023-03-27T04:35:38.798Z,3.80
2023-03-27T04:38:03.860Z,4.60
2023-03-27T04:40:26.414Z,6.00
2023-03-27T04:42:43.460Z,4.20
2023-03-27T04:44:56.829Z,2.90
2023-03-27T04:47:10.865Z,3.80
2023-03-27T04:49:26.151Z,3.10
2023-03-27T04:51:46.417Z,1.60
2023-03-27T04:54:00.905Z,2.70
2023-03-27T04:56:15.831Z,1.70
2023-03-27T04:58:29.608Z,1.40
2023-03-27T05:00:44.899Z,2.40
2023-03-27T05:03:29.381Z,2.10
2023-03-27T05:05:50.641Z,2.40
2023-03-27T05:08:04.423Z,2.50
2023-03-27T05:10:21.814Z,2.70
2023-03-27T05:12:35.996Z,2.10
2023-03-27T05:14:49.606Z,1.40
2023-03-27T05:17:19.252Z,4.90
2023-03-27T05:19:32.756Z,2.70
2023-03-27T05:21:47.567Z,5.60
2023-03-27T05:24:01.227Z,4.80
2023-03-27T05:26:13.953Z,1.80
2023-03-27T05:28:41.192Z,1.90
2023-03-27T05:30:55.522Z,1.80
2023-03-27T05:33:09.488Z,2.30
2023-03-27T05:35:25.298Z,2.90
2023-03-27T05:37:39.724Z,4.20
2023-03-27T05:40:22.151Z,2.50
2023-03-27T05:42:35.315Z,2.10
2023-03-27T05:44:48.930Z,2.00
2023-03-27T05:47:02.334Z,2.50
2023-03-27T05:49:16.531Z,3.80
2023-03-27T05:51:30.994Z,3.50
2023-03-27T05:53:44.319Z,2.60
2023-03-27T05:56:03.824Z,3.00
2023-03-27T05:58:26.113Z,2.90
2023-03-27T06:00:46.977Z,1.70
2023-03-27T06:03:05.849Z,2.90
2023-03-27T06:05:36.312Z,3.00
2023-03-27T06:07:49.956Z,1.90
2023-03-27T06:10:04.116Z,2.30
2023-03-27T06:12:28.914Z,2.00
2023-03-27T06:14:48.603Z,2.20
2023-03-27T06:17:17.789Z,2.20
2023-03-27T06:19:37.194Z,1.90
2023-03-27T06:21:50.700Z,2.10
2023-03-27T06:24:03.735Z,3.60
2023-03-27T06:26:16.978Z,7.00
2023-03-27T06:28:30.908Z,1.50
2023-03-27T06:30:44.091Z,3.70
2023-03-27T06:33:16.354Z,4.80
2023-03-27T06:35:32.109Z,2.70
2023-03-27T06:38:00.185Z,3.20
2023-03-27T06:40:21.704Z,3.60
2023-03-27T06:42:36.958Z,4.50
2023-03-27T06:45:09.088Z,1.70
2023-03-27T06:47:51.654Z,2.50
2023-03-27T06:50:37.170Z,3.40
2023-03-27T06:52:51.195Z,2.30
2023-03-27T06:55:25.616Z,2.70
2023-03-27T06:57:39.336Z,2.30
2023-03-27T06:59:52.514Z,3.40
2023-03-27T07:02:08.646Z,2.20
2023-03-27T07:07:06.182Z,1.30
2023-03-27T07:09:22.049Z,2.30
2023-03-27T07:11:44.588Z,1.90
2023-03-27T07:13:58.076Z,1.70
2023-03-27T07:16:15.030Z,2.60
2023-03-27T07:18:28.284Z,2.10
2023-03-27T07:20:41.994Z,4.20
2023-03-27T07:22:58.463Z,2.40
2023-03-27T07:25:33.777Z,2.30
2023-03-27T07:27:47.809Z,2.50
2023-03-27T07:30:02.599Z,2.00
2023-03-27T07:32:29.670Z,1.60
2023-03-27T07:34:51.018Z,3.30
2023-03-27T07:37:25.920Z,4.10
2023-03-27T07:39:59.172Z,4.00
2023-03-27T07:42:12.299Z,2.80
2023-03-27T07:44:54.018Z,2.20
2023-03-27T07:47:11.411Z,3.10
2023-03-27T07:49:39.374Z,3.90
2023-03-27T07:51:58.559Z,2.30
2023-03-27T07:54:14.414Z,6.00
2023-03-27T07:56:32.951Z,4.40
2023-03-27T07:59:02.802Z,3.20
2023-03-27T08:01:15.759Z,5.00
2023-03-27T08:03:29.303Z,3.40
2023-03-27T08:05:42.685Z,3.90
2023-03-27T08:07:57.025Z,2.80
2023-03-27T08:10:26.104Z,2.50
2023-03-27T08:12:43.961Z,3.30
2023-03-27T08:14:56.928Z,3.20
2023-03-27T08:17:16.256Z,2.70
2023-03-27T08:19:29.534Z,2.50
2023-03-27T08:21:45.008Z,3.70
2023-03-27T08:23:59.717Z,3.80
2023-03-27T08:26:33.416Z,2.90
2023-03-27T08:28:48.912Z,4.90
2023-03-27T08:31:02.811Z,2.80
2023-03-27T08:33:20.431Z,3.50
2023-03-27T08:35:33.568Z,3.20
2023-03-27T08:37:47.720Z,3.40
2023-03-27T08:40:29.807Z,2.90
2023-03-27T08:43:13.787Z,4.90
2023-03-27T08:45:31.892Z,3.30
2023-03-27T08:47:53.684Z,4.90
2023-03-27T08:50:21.296Z,5.40
2023-03-27T08:52:39.003Z,4.90
2023-03-27T08:54:59.373Z,3.60
2023-03-27T08:57:24.858Z,3.30
2023-03-27T08:59:40.735Z,6.10
2023-03-27T09:02:06.738Z,3.80
2023-03-27T09:04:31.176Z,3.40
2023-03-27T09:06:51.667Z,3.40
2023-03-27T09:09:10.050Z,6.50
2023-03-27T09:11:35.817Z,3.30
2023-03-27T09:13:52.828Z,4.10
2023-03-27T09:16:14.593Z,3.60
2023-03-27T09:18:34.529Z,3.40
2023-03-27T09:20:52.573Z,5.90
2023-03-27T09:23:14.544Z,2.80
2023-03-27T09:25:48.799Z,3.80
2023-03-27T09:28:33.443Z,2.90
2023-03-27T09:30:48.868Z,4.80
2023-03-27T09:33:14.077Z,3.80
2023-03-27T09:35:29.359Z,2.80
2023-03-27T09:37:43.917Z,4.80
2023-03-27T09:39:58.331Z,3.40
2023-03-27T09:42:20.098Z,5.00
2023-03-27T09:44:36.195Z,7.40
2023-03-27T09:46:53.611Z,4.50
2023-03-27T09:49:15.303Z,4.20
2023-03-27T09:51:46.113Z,6.00
2023-03-27T09:54:05.548Z,6.70
2023-03-27T09:56:21.681Z,5.30
2023-03-27T09:58:45.071Z,10.40
2023-03-27T10:01:20.925Z,7.20
2023-03-27T10:03:43.531Z,7.70
2023-03-27T10:06:12.707Z,5.90
2023-03-27T10:08:43.710Z,7.60
2023-03-27T10:11:09.346Z,4.90
2023-03-27T10:13:30.325Z,5.40
2023-03-27T10:15:44.942Z,6.00
2023-03-27T10:18:07.865Z,6.80
2023-03-27T10:20:23.696Z,6.50
2023-03-27T10:22:41.823Z,6.70
2023-03-27T10:24:56.580Z,12.30
2023-03-27T10:27:25.991Z,8.90
2023-03-27T10:30:28.508Z,5.70
2023-03-27T10:32:53.075Z,7.40
2023-03-27T10:35:36.769Z,8.00
2023-03-27T10:38:03.279Z,22.10
2023-03-27T10:40:23.312Z,15.50
2023-03-27T10:42:39.619Z,5.40
2023-03-27T10:44:55.649Z,42.40
2023-03-27T10:47:18.989Z,20.60
2023-03-27T10:49:39.713Z,4.70
2023-03-27T10:51:55.937Z,26.30
2023-03-27T10:54:29.445Z,7.50
2023-03-27T10:56:55.620Z,4.60
2023-03-27T10:59:21.573Z,4.20
2023-03-27T11:01:46.347Z,4.30
2023-03-27T11:04:04.729Z,4.00
2023-03-27T11:06:24.676Z,4.00
2023-03-27T11:08:46.389Z,3.90
2023-03-27T11:11:11.729Z,3.30
2023-03-27T11:13:32.088Z,3.60
2023-03-27T11:15:55.268Z,2.90
2023-03-27T11:18:31.020Z,2.90
2023-03-27T11:20:51.785Z,3.10
2023-03-27T11:23:33.845Z,3.70
2023-03-27T11:26:10.603Z,3.70
2023-03-27T11:28:29.293Z,3.70
2023-03-27T11:30:47.046Z,3.60
2023-03-27T11:33:12.432Z,4.70
2023-03-27T11:35:29.163Z,3.80
2023-03-27T11:38:09.181Z,4.10
2023-03-27T11:40:31.594Z,3.90
2023-03-27T11:42:48.726Z,4.00
2023-03-27T11:45:05.696Z,3.70
2023-03-27T11:47:45.946Z,4.10
2023-03-27T11:53:10.087Z,5.80
2023-03-27T11:56:10.009Z,4.70
2023-03-27T11:58:34.470Z,4.60
2023-03-27T12:00:56.495Z,4.40
2023-03-27T12:03:42.468Z,6.70
2023-03-27T12:06:15.195Z,3.60
2023-03-27T12:08:43.083Z,4.30
2023-03-27T12:11:00.414Z,4.10
2023-03-27T12:14:01.529Z,3.70
2023-03-27T12:16:56.227Z,5.60
2023-03-27T12:19:36.234Z,3.90
2023-03-27T12:22:23.906Z,4.10
2023-03-27T12:25:00.251Z,3.70
2023-03-27T12:28:04.136Z,5.10
2023-03-27T12:30:36.474Z,6.00
2023-03-27T12:33:05.700Z,5.50
2023-03-27T12:35:22.893Z,4.20
2023-03-27T12:37:45.567Z,4.70
2023-03-27T12:40:00.961Z,6.20
2023-03-27T12:42:55.410Z,3.80
2023-03-27T12:45:19.048Z,4.90
2023-03-27T12:47:36.206Z,3.80
2023-03-27T12:50:03.618Z,4.60
2023-03-27T12:52:22.249Z,3.60
2023-03-27T12:55:05.410Z,4.80
2023-03-27T12:57:53.119Z,4.80
2023-03-27T13:00:29.903Z,8.10
2023-03-27T13:03:25.802Z,3.80
2023-03-27T13:06:07.828Z,4.10
2023-03-27T13:08:54.626Z,5.70
2023-03-27T13:11:32.518Z,5.20
2023-03-27T13:14:20.890Z,4.20
2023-03-27T13:16:46.540Z,4.30
2023-03-27T13:19:28.445Z,4.40
2023-03-27T13:22:12.586Z,5.00
2023-03-27T13:24:41.108Z,10.40
2023-03-27T13:27:14.466Z,4.80
2023-03-27T13:29:28.602Z,4.60
2023-03-27T13:32:08.507Z,3.10
2023-03-27T13:34:42.342Z,3.90
2023-03-27T13:37:36.864Z,3.80
2023-03-27T13:40:08.820Z,3.20
2023-03-27T13:42:28.137Z,2.70
2023-03-27T13:44:54.716Z,3.40
2023-03-27T13:47:35.932Z,3.20
2023-03-27T13:50:14.138Z,3.00
2023-03-27T13:52:47.155Z,2.80
2023-03-27T13:55:30.814Z,3.40
2023-03-27T13:58:22.397Z,2.80
2023-03-27T14:01:08.706Z,3.40
2023-03-27T14:03:56.582Z,2.80
2023-03-27T14:06:40.846Z,3.30
2023-03-27T14:09:02.125Z,3.50
2023-03-27T14:11:53.871Z,3.80
2023-03-27T14:15:10.617Z,2.60
2023-03-27T14:17:41.627Z,2.60
2023-03-27T14:20:26.024Z,3.40
2023-03-27T14:22:44.313Z,4.40
2023-03-27T14:25:03.706Z,4.70
2023-03-27T14:27:29.716Z,3.20
2023-03-27T14:29:45.652Z,4.80
2023-03-27T14:32:04.631Z,4.20
2023-03-27T14:34:25.962Z,4.40
2023-03-27T14:36:54.623Z,4.40
2023-03-27T14:39:21.257Z,3.60
2023-03-27T14:41:38.203Z,3.20
2023-03-27T14:43:54.415Z,4.40
2023-03-27T14:46:10.313Z,5.30
2023-03-27T14:48:27.832Z,4.60
2023-03-27T14:50:41.872Z,5.40
2023-03-27T14:53:01.718Z,5.10
2023-03-27T14:55:27.505Z,4.10
2023-03-27T14:58:11.248Z,4.20
2023-03-27T15:00:29.148Z,6.40
2023-03-27T15:02:43.806Z,6.90
2023-03-27T15:04:57.703Z,8.70
2023-03-27T15:07:21.034Z,5.50
2023-03-27T15:09:47.364Z,3.60
2023-03-27T15:12:31.539Z,5.10
2023-03-27T15:14:44.725Z,5.20
2023-03-27T15:17:02.718Z,5.50
2023-03-27T15:19:24.220Z,7.60
2023-03-27T15:21:51.979Z,5.60
2023-03-27T15:24:11.381Z,5.80
2023-03-27T15:26:28.527Z,11.30
2023-03-27T15:28:45.488Z,6.90
2023-03-27T15:31:01.005Z,6.30
2023-03-27T15:33:21.547Z,6.80
2023-03-27T15:35:40.039Z,8.60
2023-03-27T15:37:53.952Z,7.00
2023-03-27T15:40:27.781Z,10.00
2023-03-27T15:42:56.072Z,6.10
2023-03-27T15:45:12.708Z,8.60
2023-03-27T15:47:33.537Z,8.80
2023-03-27T15:49:47.230Z,8.00
2023-03-27T15:52:02.347Z,10.90
2023-03-27T15:54:32.328Z,10.30
2023-03-27T15:56:47.322Z,10.50
2023-03-27T15:59:04.934Z,10.10
2023-03-27T16:01:21.289Z,11.30
2023-03-27T16:03:37.185Z,8.50
2023-03-27T16:05:50.693Z,10.50
2023-03-27T16:08:03.500Z,9.50
2023-03-27T16:10:17.880Z,8.60
2023-03-27T16:12:35.511Z,8.20
2023-03-27T16:15:00.368Z,9.00
2023-03-27T16:17:35.390Z,6.90
2023-03-27T16:19:58.695Z,9.00
2023-03-27T16:22:11.449Z,9.30
2023-03-27T16:24:24.442Z,11.70
2023-03-27T16:26:37.795Z,6.40
2023-03-27T16:28:51.150Z,7.90
2023-03-27T16:31:12.655Z,8.90
2023-03-27T16:33:28.541Z,7.70
2023-03-27T16:35:41.702Z,6.90
2023-03-27T16:37:55.013Z,5.70
2023-03-27T16:40:08.000Z,8.90
2023-03-27T16:42:26.083Z,5.20
2023-03-27T16:44:40.185Z,5.30
2023-03-27T16:46:53.357Z,8.60
2023-03-27T16:49:06.399Z,6.20
2023-03-27T16:51:19.121Z,4.80
2023-03-27T16:53:32.046Z,6.10
2023-03-27T16:55:46.057Z,4.70
2023-03-27T16:57:59.239Z,4.50
2023-03-27T17:00:14.896Z,3.90
2023-03-27T17:02:28.061Z,4.60
2023-03-27T17:04:41.054Z,5.70
2023-03-27T17:06:59.271Z,4.40
2023-03-27T17:09:13.818Z,5.60
2023-03-27T17:11:26.713Z,4.80
2023-03-27T17:13:42.894Z,4.60
2023-03-27T17:15:57.606Z,6.40
2023-03-27T17:18:10.832Z,5.00
2023-03-27T17:20:24.027Z,3.20
2023-03-27T17:22:37.286Z,6.20
2023-03-27T17:24:56.746Z,4.10
2023-03-27T17:27:09.844Z,2.60
2023-03-27T17:29:22.906Z,3.60
2023-03-27T17:31:35.862Z,1.70
2023-03-27T17:33:48.483Z,2.00
2023-03-27T17:36:01.502Z,2.90
2023-03-27T17:38:14.811Z,5.00
2023-03-27T17:40:30.336Z,1.90
2023-03-27T17:42:43.315Z,3.60
2023-03-27T17:45:03.693Z,3.00
2023-03-27T17:47:16.630Z,1.90
2023-03-27T17:49:30.761Z,1.90
2023-03-27T17:51:43.476Z,3.30
2023-03-27T17:53:56.329Z,1.70
2023-03-27T17:56:10.332Z,1.50
2023-03-27T17:58:24.015Z,3.10
2023-03-27T18:00:36.915Z,1.70
2023-03-27T18:02:50.283Z,1.20
2023-03-27T18:05:03.010Z,0.70
2023-03-27T18:07:15.587Z,1.30
2023-03-27T18:09:29.218Z,6.20
2023-03-27T18:11:43.170Z,0.60
2023-03-27T18:13:57.700Z,0.70
2023-03-27T18:16:13.294Z,0.60
2023-03-27T18:18:27.492Z,0.60
2023-03-27T18:20:42.466Z,0.80
2023-03-27T18:22:56.098Z,0.90
2023-03-27T18:25:11.056Z,0.80
2023-03-27T18:27:24.197Z,0.50
2023-03-27T18:29:38.819Z,0.40
2023-03-27T18:31:53.041Z,0.30
2023-03-27T18:34:09.236Z,0.40
2023-03-27T18:36:22.816Z,0.70
2023-03-27T18:38:36.120Z,0.50
2023-03-27T18:40:50.730Z,0.60
2023-03-27T18:43:05.597Z,0.90
2023-03-27T18:45:19.649Z,1.50
2023-03-27T18:47:33.232Z,0.40
2023-03-27T18:49:47.307Z,0.60
2023-03-27T18:51:59.988Z,1.70
2023-03-27T18:54:14.400Z,0.70
2023-03-27T18:56:27.577Z,1.10
2023-03-27T18:58:40.242Z,1.30
2023-03-27T19:00:53.320Z,1.70
2023-03-27T19:03:06.520Z,0.40
2023-03-27T19:05:19.766Z,0.50
2023-03-27T19:07:32.721Z,1.20
2023-03-27T19:09:45.507Z,1.60
2023-03-27T19:11:58.837Z,1.60
2023-03-27T19:14:30.368Z,0.50
2023-03-27T19:17:05.039Z,0.60
2023-03-27T19:19:25.484Z,0.40
2023-03-27T19:21:39.371Z,1.00
2023-03-27T19:24:04.178Z,0.30
2023-03-27T19:26:27.396Z,0.40
2023-03-27T19:28:41.444Z,1.70
2023-03-27T19:30:55.754Z,0.40
2023-03-27T19:33:08.479Z,1.20
2023-03-27T19:35:22.359Z,0.40
2023-03-27T19:37:35.383Z,0.40
2023-03-27T19:39:48.259Z,0.80
2023-03-27T19:42:01.353Z,0.70
2023-03-27T19:44:17.058Z,2.80
2023-03-27T19:46:30.208Z,0.50
2023-03-27T19:48:44.976Z,1.20
2023-03-27T19:51:19.003Z,2.00
2023-03-27T19:53:37.699Z,0.80
2023-03-27T19:55:52.206Z,0.80
2023-03-27T19:58:06.117Z,0.30
2023-03-27T20:00:22.437Z,0.40
2023-03-27T20:02:37.038Z,0.60
2023-03-27T20:04:51.754Z,4.40
2023-03-27T20:07:08.128Z,0.20
2023-03-27T20:09:21.867Z,0.40
2023-03-27T20:11:35.421Z,1.30
2023-03-27T20:13:56.121Z,0.60
2023-03-27T20:16:15.986Z,1.90
2023-03-27T20:18:33.804Z,0.40
2023-03-27T20:20:47.497Z,0.90
2023-03-27T20:23:02.645Z,1.00
2023-03-27T20:25:15.862Z,1.40
2023-03-27T20:27:32.785Z,2.10
2023-03-27T20:29:45.554Z,1.00
2023-03-27T20:31:59.635Z,0.50
2023-03-27T20:34:12.828Z,0.40
2023-03-27T20:36:25.832Z,0.50
2023-03-27T20:38:39.433Z,3.70
2023-03-27T20:40:54.734Z,0.50
2023-03-27T20:43:10.718Z,0.80
2023-03-27T20:45:28.153Z,0.30
2023-03-27T20:47:43.967Z,1.60
2023-03-27T20:49:59.856Z,1.70
2023-03-27T20:52:13.317Z,1.20
2023-03-27T20:54:26.641Z,0.90
2023-03-27T20:56:39.336Z,1.50
2023-03-27T20:58:54.269Z,1.40
2023-03-27T21:01:10.022Z,0.40
2023-03-27T21:03:22.768Z,1.60
2023-03-27T21:05:39.816Z,0.70
2023-03-27T21:07:53.643Z,1.80
2023-03-27T21:10:07.703Z,1.50
2023-03-27T21:12:21.328Z,0.70
2023-03-27T21:14:34.883Z,0.60
2023-03-27T21:16:47.510Z,0.80
2023-03-27T21:19:00.281Z,0.60
2023-03-27T21:21:16.212Z,0.50
2023-03-27T21:23:29.024Z,0.70
2023-03-27T21:25:41.990Z,1.70
2023-03-27T21:27:58.539Z,0.50
2023-03-27T21:30:15.138Z,2.10
2023-03-27T21:32:30.430Z,1.10
2023-03-27T21:34:44.085Z,0.70
2023-03-27T21:36:59.173Z,2.70
2023-03-27T21:39:12.057Z,3.00
2023-03-27T21:41:25.740Z,1.20
2023-03-27T21:43:40.612Z,0.50
2023-03-27T21:45:55.082Z,0.30
2023-03-27T21:48:11.456Z,4.50
2023-03-27T21:50:25.690Z,0.80
2023-03-27T21:52:41.614Z,8.50
2023-03-27T21:55:02.880Z,0.50
2023-03-27T21:57:18.952Z,0.70
2023-03-27T21:59:33.443Z,1.00
2023-03-27T22:01:47.356Z,1.10
2023-03-27T22:04:03.257Z,0.40
2023-03-27T22:06:20.169Z,0.40
2023-03-27T22:08:33.188Z,0.50
2023-03-27T22:10:45.796Z,0.60
2023-03-27T22:13:01.761Z,3.00
2023-03-27T22:15:17.473Z,2.00
2023-03-27T22:17:33.177Z,1.40
2023-03-27T22:19:46.742Z,2.50
2023-03-27T22:22:02.420Z,1.20
2023-03-27T22:24:16.991Z,1.10
2023-03-27T22:26:32.920Z,2.20
2023-03-27T22:28:46.716Z,3.10
2023-03-27T22:30:59.891Z,2.00
2023-03-27T22:33:12.518Z,0.50
2023-03-27T22:35:25.184Z,0.50
2023-03-27T22:37:41.885Z,0.60
2023-03-27T22:39:55.932Z,2.20
2023-03-27T22:42:11.194Z,0.80
2023-03-27T22:44:23.931Z,3.10
2023-03-27T22:46:36.819Z,4.20
2023-03-27T22:48:50.202Z,2.80
2023-03-27T22:51:03.494Z,0.60
2023-03-27T22:53:17.013Z,1.90
2023-03-27T22:55:30.341Z,0.40
2023-03-27T22:57:43.576Z,1.70
2023-03-27T22:59:57.310Z,1.20
2023-03-27T23:02:10.415Z,8.70
2023-03-27T23:04:23.792Z,1.20
2023-03-27T23:06:39.517Z,1.10
2023-03-27T23:08:52.885Z,0.40
2023-03-27T23:11:09.976Z,0.40
2023-03-27T23:13:23.611Z,2.10
2023-03-27T23:15:37.882Z,0.50
2023-03-27T23:17:51.306Z,1.70
2023-03-27T23:20:06.636Z,4.90
2023-03-27T23:22:20.011Z,1.70
2023-03-27T23:24:36.089Z,2.10
2023-03-27T23:26:48.903Z,1.20
2023-03-27T23:29:01.778Z,1.90
2023-03-27T23:31:17.431Z,1.30
2023-03-27T23:33:33.403Z,2.30
2023-03-27T23:35:46.100Z,0.50
2023-03-27T23:37:59.727Z,0.80
2023-03-27T23:40:14.906Z,2.10
2023-03-27T23:42:28.208Z,1.70
2023-03-27T23:44:42.389Z,0.70
2023-03-27T23:46:56.022Z,0.90
2023-03-27T23:49:09.009Z,0.80
2023-03-27T23:51:22.853Z,1.80
2023-03-27T23:53:37.578Z,0.60
2023-03-27T23:55:51.498Z,1.60
2023-03-27T23:58:08.573Z,0.50
